Anna, Ohio
Current Conditions -  °F | °C
As of 1:53 AM on Monday 24 Nov 2014 (Local Time) from KAXV Reporting Station
Moderate Rain Moderate Rain  
Wind Chill: 57°   Ceiling: 1100
Heat Index: 57°   Visibility: 5mi
Dew Point: 55°   Wind: 23mph
Humidity: 94%   Direction: 190°S
Pressure: 29.18"   Gusts: 35mph
Location:  40.39°N, 84.17°W
Report Text: KAXV 240653Z AUTO 19020G30KT 5SM RA OVC011 14/13 A2918 RMK AO2
Loading
Personal Weather Stations






























Interactive Weather Map New forecast layout! Learn more

10-Day Weather Forecast

Advertisements
Track Severe Weather on mobile